Time;durP1;ratioP1;P1;durP2;ratioP2;P2;SDS_P1;SDS_P2;PMS_P1;PMS_P2;Temp;Humidity;BMP_temperature;BMP_pressure;BME280_temperature;BME280_humidity;BME280_pressure;Samples;Min_cycle;Max_cycle;Signal;HPM_P1;HPM_P2
2022/10/12 00:00:53;;;;;;;0.20;0.20;;;;;;;;;;4929805;29;20056;-84
2022/10/12 00:03:20;;;;;;;0.20;0.20;;;;;;;;;;4911207;29;20043;-82
2022/10/12 00:05:46;;;;;;;0.10;0.10;;;;;;;;;;4912336;29;20535;-83
2022/10/12 00:08:12;;;;;;;0.20;0.20;;;;;;;;;;4932749;29;20114;-82
2022/10/12 00:10:42;;;;;;;0.20;0.20;;;;;;;;;;4915026;29;20428;-82
2022/10/12 00:13:08;;;;;;;0.20;0.20;;;;;;;;;;4914317;29;20483;-82
2022/10/12 00:15:41;;;;;;;0.20;0.20;;;;;;;;;;4914873;29;20934;-82
2022/10/12 00:18:07;;;;;;;0.10;0.10;;;;;;;;;;4927141;29;22228;-82
2022/10/12 00:20:34;;;;;;;0.20;0.20;;;;;;;;;;4931845;29;20055;-82
2022/10/12 00:23:00;;;;;;;0.20;0.20;;;;;;;;;;4914232;29;20467;-82
2022/10/12 00:25:26;;;;;;;0.20;0.20;;;;;;;;;;4908543;29;20074;-81
2022/10/12 00:27:52;;;;;;;0.20;0.20;;;;;;;;;;4910955;29;20511;-82
2022/10/12 00:30:18;;;;;;;0.20;0.20;;;;;;;;;;4907808;29;20055;-82
2022/10/12 00:32:44;;;;;;;0.20;0.20;;;;;;;;;;4912888;29;20180;-82
2022/10/12 00:35:10;;;;;;;0.20;0.20;;;;;;;;;;4924569;29;20055;-82
2022/10/12 00:37:36;;;;;;;0.10;0.10;;;;;;;;;;4914148;29;20048;-83
2022/10/12 00:40:02;;;;;;;0.20;0.20;;;;;;;;;;4911008;29;20063;-82
2022/10/12 00:42:28;;;;;;;0.20;0.20;;;;;;;;;;4923836;29;20040;-82
2022/10/12 00:44:54;;;;;;;0.20;0.20;;;;;;;;;;4932377;29;20055;-83
2022/10/12 00:47:37;;;;;;;0.20;0.20;;;;;;;;;;4925536;29;20694;-83
2022/10/12 00:50:06;;;;;;;0.15;0.15;;;;;;;;;;4914714;29;20415;-84
2022/10/12 00:52:39;;;;;;;0.20;0.20;;;;;;;;;;4924844;29;20424;-83
2022/10/12 00:55:05;;;;;;;0.20;0.20;;;;;;;;;;4932430;29;20028;-83
2022/10/12 00:57:31;;;;;;;0.20;0.20;;;;;;;;;;4934698;29;20044;-82
2022/10/12 01:00:04;;;;;;;0.20;0.20;;;;;;;;;;4912242;29;20052;-83
2022/10/12 01:02:32;;;;;;;0.20;0.20;;;;;;;;;;4913419;29;20138;-83
2022/10/12 01:04:58;;;;;;;0.10;0.10;;;;;;;;;;4908899;29;20404;-83
2022/10/12 01:07:24;;;;;;;0.20;0.20;;;;;;;;;;4930035;29;20051;-82
2022/10/12 01:09:50;;;;;;;0.20;0.20;;;;;;;;;;4934708;29;20464;-83
2022/10/12 01:12:17;;;;;;;0.20;0.20;;;;;;;;;;4916529;29;20099;-82
2022/10/12 01:14:43;;;;;;;0.20;0.20;;;;;;;;;;4933368;29;20039;-83
2022/10/12 01:17:15;;;;;;;0.20;0.20;;;;;;;;;;4929263;29;20051;-84
2022/10/12 01:19:44;;;;;;;0.20;0.20;;;;;;;;;;4914154;29;20048;-83
2022/10/12 01:22:12;;;;;;;0.20;0.20;;;;;;;;;;4932396;29;20095;-82
2022/10/12 01:24:41;;;;;;;0.13;0.13;;;;;;;;;;4934098;29;20039;-83
2022/10/12 01:27:07;;;;;;;0.20;0.20;;;;;;;;;;4916431;29;20039;-83
2022/10/12 01:29:52;;;;;;;0.20;0.20;;;;;;;;;;4916247;29;20448;-82
2022/10/12 01:32:22;;;;;;;0.10;0.10;;;;;;;;;;4929937;29;20090;-83
2022/10/12 01:34:53;;;;;;;0.20;0.20;;;;;;;;;;4914549;29;20090;-83
2022/10/12 01:37:38;;;;;;;0.20;0.20;;;;;;;;;;4913377;29;20117;-82
2022/10/12 01:40:07;;;;;;;0.20;0.20;;;;;;;;;;4912047;29;20055;-83
2022/10/12 01:42:36;;;;;;;0.20;0.20;;;;;;;;;;4933746;29;20065;-83
2022/10/12 01:45:10;;;;;;;0.10;0.10;;;;;;;;;;4911349;29;20099;-83
2022/10/12 01:47:37;;;;;;;0.20;0.20;;;;;;;;;;4924095;29;20071;-82
2022/10/12 01:50:06;;;;;;;0.10;0.10;;;;;;;;;;4910248;29;20646;-82
2022/10/12 01:52:38;;;;;;;0.20;0.20;;;;;;;;;;4934954;29;20035;-82
2022/10/12 01:55:16;;;;;;;0.20;0.20;;;;;;;;;;4916501;29;20048;-83
2022/10/12 01:57:46;;;;;;;0.20;0.20;;;;;;;;;;4915665;29;20050;-83
2022/10/12 02:00:14;;;;;;;0.20;0.20;;;;;;;;;;4915513;29;20052;-82
2022/10/12 02:02:52;;;;;;;0.20;0.20;;;;;;;;;;4905797;29;20048;-82
2022/10/12 02:05:18;;;;;;;0.20;0.20;;;;;;;;;;4913554;29;20047;-83
2022/10/12 02:07:50;;;;;;;0.20;0.20;;;;;;;;;;4910355;29;20123;-83
2022/10/12 02:10:19;;;;;;;0.20;0.20;;;;;;;;;;4909165;29;20469;-83
2022/10/12 02:12:46;;;;;;;0.20;0.20;;;;;;;;;;4913075;29;20052;-83
2022/10/12 02:15:13;;;;;;;0.20;0.20;;;;;;;;;;4914844;29;20043;-83
2022/10/12 02:17:40;;;;;;;0.20;0.20;;;;;;;;;;4906137;29;20044;-82
2022/10/12 02:20:08;;;;;;;0.10;0.10;;;;;;;;;;4932576;29;20083;-82
2022/10/12 02:22:37;;;;;;;0.20;0.20;;;;;;;;;;4918242;29;20075;-82
2022/10/12 02:25:06;;;;;;;0.20;0.20;;;;;;;;;;4903892;29;20076;-83
2022/10/12 02:27:34;;;;;;;0.20;0.20;;;;;;;;;;4929763;29;20443;-82
2022/10/12 02:30:00;;;;;;;0.20;0.20;;;;;;;;;;4925403;29;20135;-82
2022/10/12 02:32:39;;;;;;;0.20;0.20;;;;;;;;;;4910972;29;20047;-83
2022/10/12 02:35:07;;;;;;;0.20;0.20;;;;;;;;;;4913403;29;20435;-83
2022/10/12 02:37:36;;;;;;;0.20;0.20;;;;;;;;;;4920178;29;20496;-83
2022/10/12 02:40:17;;;;;;;0.20;0.20;;;;;;;;;;4938821;29;20067;-82
2022/10/12 02:42:48;;;;;;;0.30;0.30;;;;;;;;;;4938815;29;20130;-83
2022/10/12 02:45:15;;;;;;;0.20;0.20;;;;;;;;;;4917550;29;20040;-82
2022/10/12 02:47:42;;;;;;;0.20;0.20;;;;;;;;;;4916711;29;20061;-81
2022/10/12 02:50:09;;;;;;;0.20;0.20;;;;;;;;;;4928357;29;20361;-83
2022/10/12 02:52:35;;;;;;;0.20;0.20;;;;;;;;;;4913542;29;20071;-83
2022/10/12 02:55:01;;;;;;;0.20;0.20;;;;;;;;;;4929410;29;20039;-84
2022/10/12 02:57:27;;;;;;;0.20;0.20;;;;;;;;;;4914154;29;20058;-83
2022/10/12 02:59:53;;;;;;;0.20;0.20;;;;;;;;;;4914156;29;20099;-82
2022/10/12 03:02:22;;;;;;;0.20;0.20;;;;;;;;;;4931556;29;20103;-83
2022/10/12 03:04:48;;;;;;;0.20;0.20;;;;;;;;;;4929230;29;20048;-83
2022/10/12 03:07:14;;;;;;;0.20;0.20;;;;;;;;;;4929904;29;20125;-83
2022/10/12 03:09:40;;;;;;;0.20;0.20;;;;;;;;;;4932569;29;20421;-82
2022/10/12 03:12:06;;;;;;;0.20;0.20;;;;;;;;;;4914533;29;20047;-83
2022/10/12 03:14:33;;;;;;;0.20;0.20;;;;;;;;;;4908067;29;20071;-82
2022/10/12 03:17:00;;;;;;;0.20;0.20;;;;;;;;;;4927144;29;20051;-82
2022/10/12 03:19:26;;;;;;;0.20;0.20;;;;;;;;;;4910059;29;20043;-81
2022/10/12 03:21:52;;;;;;;0.20;0.20;;;;;;;;;;4925661;29;20047;-81
2022/10/12 03:24:18;;;;;;;0.20;0.20;;;;;;;;;;4906698;29;20103;-82
2022/10/12 03:26:44;;;;;;;0.20;0.20;;;;;;;;;;4929406;29;20093;-81
2022/10/12 03:29:10;;;;;;;0.13;0.13;;;;;;;;;;4914642;29;20408;-81
2022/10/12 03:31:36;;;;;;;0.20;0.20;;;;;;;;;;4930940;29;20048;-82
2022/10/12 03:34:02;;;;;;;0.20;0.20;;;;;;;;;;4912300;29;20424;-82
2022/10/12 03:36:29;;;;;;;0.20;0.20;;;;;;;;;;4929918;29;20047;-81
2022/10/12 03:38:58;;;;;;;0.20;0.20;;;;;;;;;;4932723;29;20074;-81
2022/10/12 03:41:24;;;;;;;0.20;0.20;;;;;;;;;;4931246;29;20102;-81
2022/10/12 03:43:50;;;;;;;0.20;0.20;;;;;;;;;;4915010;29;20071;-81
2022/10/12 03:46:15;;;;;;;0.20;0.20;;;;;;;;;;4915521;29;20075;-81
2022/10/12 03:48:41;;;;;;;0.20;0.20;;;;;;;;;;4912478;29;20122;-82
2022/10/12 03:51:08;;;;;;;0.20;0.20;;;;;;;;;;4915996;29;20035;-82
2022/10/12 03:53:34;;;;;;;0.20;0.20;;;;;;;;;;4913565;29;20075;-82
2022/10/12 03:56:00;;;;;;;0.20;0.20;;;;;;;;;;4915304;29;20048;-81
2022/10/12 03:58:26;;;;;;;0.20;0.20;;;;;;;;;;4932228;29;20054;-81
2022/10/12 04:00:55;;;;;;;0.20;0.20;;;;;;;;;;4915843;29;20122;-81
2022/10/12 04:03:21;;;;;;;0.20;0.20;;;;;;;;;;4906837;29;20484;-81
2022/10/12 04:05:53;;;;;;;0.20;0.20;;;;;;;;;;4931578;29;20934;-82
2022/10/12 04:08:20;;;;;;;0.20;0.20;;;;;;;;;;4929784;29;20056;-82
2022/10/12 04:10:46;;;;;;;0.25;0.25;;;;;;;;;;4913907;29;20044;-82
2022/10/12 04:13:12;;;;;;;0.20;0.20;;;;;;;;;;4915596;29;20109;-81
2022/10/12 04:15:38;;;;;;;0.20;0.20;;;;;;;;;;4910013;29;20059;-81
2022/10/12 04:18:04;;;;;;;0.15;0.15;;;;;;;;;;4905548;29;20040;-81
2022/10/12 04:20:30;;;;;;;0.20;0.20;;;;;;;;;;4933650;29;20062;-82
2022/10/12 04:22:56;;;;;;;0.20;0.20;;;;;;;;;;4939063;29;20059;-82
2022/10/12 04:25:22;;;;;;;0.20;0.20;;;;;;;;;;4949040;28;20099;-81
2022/10/12 04:27:48;;;;;;;0.20;0.20;;;;;;;;;;4927088;29;20587;-81
2022/10/12 04:30:14;;;;;;;0.20;0.20;;;;;;;;;;4931781;29;20046;-81
2022/10/12 04:32:40;;;;;;;0.20;0.20;;;;;;;;;;4913497;29;20051;-80
2022/10/12 04:35:10;;;;;;;0.20;0.20;;;;;;;;;;4931812;29;20131;-81
2022/10/12 04:37:36;;;;;;;0.20;0.20;;;;;;;;;;4912905;29;20051;-81
2022/10/12 04:40:02;;;;;;;0.20;0.20;;;;;;;;;;4912617;29;20115;-81
2022/10/12 04:42:31;;;;;;;0.20;0.20;;;;;;;;;;4912802;29;20095;-81
2022/10/12 04:44:57;;;;;;;0.20;0.20;;;;;;;;;;4911748;29;20055;-81
2022/10/12 04:47:23;;;;;;;0.20;0.20;;;;;;;;;;4930131;29;20476;-81
2022/10/12 04:49:49;;;;;;;0.20;0.20;;;;;;;;;;4910504;29;20051;-80
2022/10/12 04:52:15;;;;;;;0.20;0.20;;;;;;;;;;4929839;29;20075;-81
2022/10/12 04:54:41;;;;;;;0.20;0.20;;;;;;;;;;4912650;29;20086;-81
2022/10/12 04:57:07;;;;;;;0.20;0.20;;;;;;;;;;4926693;29;20146;-81
2022/10/12 04:59:33;;;;;;;0.20;0.20;;;;;;;;;;4929997;29;20657;-81
2022/10/12 05:01:59;;;;;;;0.20;0.20;;;;;;;;;;4910866;29;20543;-82
2022/10/12 05:04:25;;;;;;;0.20;0.20;;;;;;;;;;4911555;29;20039;-82
2022/10/12 05:06:51;;;;;;;0.20;0.20;;;;;;;;;;4911611;29;20090;-82
2022/10/12 05:09:17;;;;;;;0.20;0.20;;;;;;;;;;4913293;29;20035;-79
2022/10/12 05:11:43;;;;;;;0.20;0.20;;;;;;;;;;4929284;29;20701;-79
2022/10/12 05:14:09;;;;;;;0.20;0.20;;;;;;;;;;4906458;29;20056;-79
2022/10/12 05:16:35;;;;;;;0.17;0.17;;;;;;;;;;4931171;29;20086;-79
2022/10/12 05:19:01;;;;;;;0.20;0.20;;;;;;;;;;4912466;29;20051;-80
2022/10/12 05:21:27;;;;;;;0.20;0.20;;;;;;;;;;4930680;29;20492;-80
2022/10/12 05:23:53;;;;;;;0.20;0.20;;;;;;;;;;4914446;29;20055;-79
2022/10/12 05:26:19;;;;;;;0.20;0.20;;;;;;;;;;4907659;29;20489;-80
2022/10/12 05:28:45;;;;;;;0.20;0.20;;;;;;;;;;4907989;29;20574;-80
2022/10/12 05:31:11;;;;;;;0.20;0.20;;;;;;;;;;4930014;29;20058;-79
2022/10/12 05:33:40;;;;;;;0.20;0.20;;;;;;;;;;4913359;29;20075;-80
2022/10/12 05:36:09;;;;;;;0.20;0.20;;;;;;;;;;4931391;29;20044;-80
2022/10/12 05:38:35;;;;;;;0.13;0.13;;;;;;;;;;4931604;29;20519;-80
2022/10/12 05:41:01;;;;;;;0.20;0.20;;;;;;;;;;4929549;29;20047;-81
2022/10/12 05:43:30;;;;;;;0.17;0.17;;;;;;;;;;4931133;29;20039;-80
2022/10/12 05:45:56;;;;;;;0.20;0.20;;;;;;;;;;4926731;29;20049;-79
2022/10/12 05:48:22;;;;;;;0.20;0.20;;;;;;;;;;4913262;29;20103;-80
2022/10/12 05:50:48;;;;;;;0.20;0.20;;;;;;;;;;4906371;29;20082;-80
2022/10/12 05:53:14;;;;;;;0.20;0.20;;;;;;;;;;4912069;29;20040;-80
2022/10/12 05:55:40;;;;;;;0.10;0.10;;;;;;;;;;4913341;29;20060;-80
2022/10/12 05:58:06;;;;;;;0.20;0.20;;;;;;;;;;4935065;29;20777;-81
2022/10/12 06:00:35;;;;;;;0.20;0.20;;;;;;;;;;4934960;29;20147;-79
2022/10/12 06:03:01;;;;;;;0.20;0.20;;;;;;;;;;4933943;29;20217;-80
2022/10/12 06:05:27;;;;;;;0.20;0.20;;;;;;;;;;4930578;29;20067;-80
2022/10/12 06:07:53;;;;;;;0.20;0.20;;;;;;;;;;4924484;29;20047;-80
2022/10/12 06:10:19;;;;;;;0.20;0.20;;;;;;;;;;4938220;29;20075;-80
2022/10/12 06:12:45;;;;;;;0.20;0.20;;;;;;;;;;4930918;29;20056;-80
2022/10/12 06:15:11;;;;;;;0.20;0.20;;;;;;;;;;4911562;29;20126;-81
2022/10/12 06:17:38;;;;;;;0.20;0.20;;;;;;;;;;4932524;29;20138;-81
2022/10/12 06:20:04;;;;;;;0.20;0.20;;;;;;;;;;4913753;29;20103;-81
2022/10/12 06:22:30;;;;;;;0.20;0.20;;;;;;;;;;4932925;29;20139;-81
2022/10/12 06:24:56;;;;;;;0.20;0.20;;;;;;;;;;4928527;29;20040;-82
2022/10/12 06:27:24;;;;;;;0.17;0.17;;;;;;;;;;4911523;29;20444;-81
2022/10/12 06:29:52;;;;;;;0.20;0.20;;;;;;;;;;4930750;29;20130;-80
2022/10/12 06:32:18;;;;;;;0.20;0.20;;;;;;;;;;4931266;29;20074;-79
2022/10/12 06:34:47;;;;;;;0.20;0.20;;;;;;;;;;4910040;29;20131;-79
2022/10/12 06:37:13;;;;;;;0.20;0.20;;;;;;;;;;4908384;29;20151;-79
2022/10/12 06:39:42;;;;;;;0.20;0.20;;;;;;;;;;4917296;29;20070;-81
2022/10/12 06:42:08;;;;;;;0.20;0.20;;;;;;;;;;4933134;29;20053;-80
2022/10/12 06:44:34;;;;;;;0.25;0.25;;;;;;;;;;4913664;29;20059;-79
2022/10/12 06:47:01;;;;;;;0.20;0.20;;;;;;;;;;4916663;29;20066;-80
2022/10/12 06:49:27;;;;;;;0.20;0.20;;;;;;;;;;4914152;29;20051;-80
2022/10/12 06:51:53;;;;;;;0.20;0.20;;;;;;;;;;4914239;29;20040;-80
2022/10/12 06:54:19;;;;;;;0.20;0.20;;;;;;;;;;4928702;29;20051;-79
2022/10/12 06:56:45;;;;;;;0.20;0.20;;;;;;;;;;4904503;29;20100;-79
2022/10/12 06:59:12;;;;;;;0.20;0.20;;;;;;;;;;4930665;29;20052;-81
2022/10/12 07:01:38;;;;;;;0.20;0.20;;;;;;;;;;4932135;29;20103;-79
2022/10/12 07:04:04;;;;;;;0.20;0.20;;;;;;;;;;4909417;29;20094;-80
2022/10/12 07:06:30;;;;;;;0.13;0.13;;;;;;;;;;4928039;29;20040;-82
2022/10/12 07:08:56;;;;;;;0.20;0.20;;;;;;;;;;4931916;29;20040;-80
2022/10/12 07:11:23;;;;;;;0.20;0.20;;;;;;;;;;4913709;29;20048;-79
2022/10/12 07:13:49;;;;;;;0.20;0.20;;;;;;;;;;4924342;29;20545;-80
2022/10/12 07:16:15;;;;;;;0.20;0.20;;;;;;;;;;4915100;29;20074;-79
2022/10/12 07:18:41;;;;;;;0.25;0.25;;;;;;;;;;4928587;29;20059;-78
2022/10/12 07:21:07;;;;;;;0.20;0.20;;;;;;;;;;4909327;29;20054;-79
2022/10/12 07:23:33;;;;;;;0.20;0.20;;;;;;;;;;4911746;29;20146;-79
2022/10/12 07:26:00;;;;;;;0.20;0.20;;;;;;;;;;4910678;29;20175;-80
2022/10/12 07:28:26;;;;;;;0.20;0.20;;;;;;;;;;4910853;29;20054;-80
2022/10/12 07:30:53;;;;;;;0.20;0.20;;;;;;;;;;4915309;29;20070;-80
2022/10/12 07:33:19;;;;;;;0.20;0.20;;;;;;;;;;4911343;29;20090;-79
2022/10/12 07:35:53;;;;;;;0.20;0.20;;;;;;;;;;4915081;29;20095;-80
2022/10/12 07:38:19;;;;;;;0.20;0.20;;;;;;;;;;4912942;29;20556;-79
2022/10/12 07:40:45;;;;;;;0.20;0.20;;;;;;;;;;4929246;29;20520;-80
2022/10/12 07:43:11;;;;;;;0.20;0.20;;;;;;;;;;4915635;29;20058;-79
2022/10/12 07:45:40;;;;;;;0.20;0.20;;;;;;;;;;4931650;29;20044;-80
2022/10/12 07:48:06;;;;;;;0.20;0.20;;;;;;;;;;4911121;29;20048;-79
2022/10/12 07:50:32;;;;;;;0.20;0.20;;;;;;;;;;4914682;29;20044;-80
2022/10/12 07:52:58;;;;;;;0.20;0.20;;;;;;;;;;4942222;29;20067;-80
2022/10/12 07:55:24;;;;;;;0.20;0.20;;;;;;;;;;4937007;29;20040;-80
2022/10/12 07:57:50;;;;;;;0.20;0.20;;;;;;;;;;4919164;29;20140;-82
2022/10/12 08:00:16;;;;;;;0.20;0.20;;;;;;;;;;4914878;29;20071;-81
2022/10/12 08:02:42;;;;;;;0.20;0.20;;;;;;;;;;4909588;29;20717;-81
2022/10/12 08:05:08;;;;;;;0.20;0.20;;;;;;;;;;4913273;29;20424;-81
2022/10/12 08:07:34;;;;;;;0.20;0.20;;;;;;;;;;4923452;29;20071;-80
2022/10/12 08:10:00;;;;;;;0.10;0.10;;;;;;;;;;4925142;29;20095;-80
2022/10/12 08:12:26;;;;;;;0.20;0.20;;;;;;;;;;4913739;29;20040;-80
2022/10/12 08:14:52;;;;;;;0.20;0.20;;;;;;;;;;4915851;29;20118;-81
2022/10/12 08:17:21;;;;;;;0.20;0.20;;;;;;;;;;4930843;29;20064;-80
2022/10/12 08:19:50;;;;;;;0.20;0.20;;;;;;;;;;4929739;29;20044;-81
2022/10/12 08:22:16;;;;;;;0.20;0.20;;;;;;;;;;4922610;29;20047;-81
2022/10/12 08:24:45;;;;;;;0.20;0.20;;;;;;;;;;4926924;29;20036;-81
2022/10/12 08:27:11;;;;;;;0.28;0.28;;;;;;;;;;4906708;29;20055;-81
2022/10/12 08:29:40;;;;;;;0.20;0.20;;;;;;;;;;4926148;29;20583;-87
2022/10/12 08:32:06;;;;;;;0.20;0.20;;;;;;;;;;4928663;29;20047;-83
2022/10/12 08:34:32;;;;;;;0.20;0.20;;;;;;;;;;4906563;29;20111;-80
2022/10/12 08:36:59;;;;;;;0.20;0.20;;;;;;;;;;4929941;29;20599;-79
2022/10/12 08:39:25;;;;;;;0.20;0.20;;;;;;;;;;4913642;29;20051;-80
2022/10/12 08:41:58;;;;;;;0.20;0.20;;;;;;;;;;4910331;29;20047;-80
2022/10/12 08:44:30;;;;;;;0.20;0.20;;;;;;;;;;4908634;29;20530;-81
2022/10/12 08:46:58;;;;;;;0.20;0.20;;;;;;;;;;4912561;29;20051;-80
2022/10/12 08:49:25;;;;;;;0.20;0.20;;;;;;;;;;4921420;29;20051;-80
2022/10/12 08:51:51;;;;;;;0.20;0.20;;;;;;;;;;4911431;29;20047;-81
2022/10/12 08:54:19;;;;;;;0.20;0.20;;;;;;;;;;4912008;29;20527;-82
2022/10/12 08:56:45;;;;;;;0.20;0.20;;;;;;;;;;4913644;29;20051;-81
2022/10/12 08:59:12;;;;;;;0.20;0.20;;;;;;;;;;4912139;29;20389;-81
2022/10/12 09:01:57;;;;;;;0.20;0.20;;;;;;;;;;4913803;29;20055;-81
2022/10/12 09:04:26;;;;;;;0.10;0.10;;;;;;;;;;4905783;29;20067;-81
2022/10/12 09:06:59;;;;;;;0.20;0.20;;;;;;;;;;4914121;29;20058;-82
2022/10/12 09:09:44;;;;;;;0.15;0.15;;;;;;;;;;4930259;29;20507;-81
2022/10/12 09:12:25;;;;;;;0.20;0.20;;;;;;;;;;4927380;29;20063;-79
2022/10/12 09:14:53;;;;;;;0.20;0.20;;;;;;;;;;4906435;29;20078;-82
2022/10/12 09:17:39;;;;;;;0.20;0.20;;;;;;;;;;4911911;29;20048;-82
2022/10/12 09:20:25;;;;;;;0.20;0.20;;;;;;;;;;4909947;29;20135;-80
2022/10/12 09:22:54;;;;;;;0.20;0.20;;;;;;;;;;4898573;29;20513;-82
2022/10/12 09:25:25;;;;;;;0.20;0.20;;;;;;;;;;4915840;29;20043;-82
2022/10/12 09:27:52;;;;;;;0.20;0.20;;;;;;;;;;4932567;29;20098;-81
2022/10/12 09:30:20;;;;;;;0.10;0.10;;;;;;;;;;4933129;29;20044;-80
2022/10/12 09:33:01;;;;;;;0.20;0.20;;;;;;;;;;4918020;29;20052;-82
2022/10/12 09:35:27;;;;;;;0.20;0.20;;;;;;;;;;4926925;29;20038;-80
2022/10/12 09:37:53;;;;;;;0.20;0.20;;;;;;;;;;4941205;29;20035;-81
2022/10/12 09:40:21;;;;;;;0.20;0.20;;;;;;;;;;4940516;29;20066;-80
2022/10/12 09:42:51;;;;;;;0.20;0.20;;;;;;;;;;4944278;29;20074;-81
2022/10/12 09:45:19;;;;;;;0.20;0.20;;;;;;;;;;4932096;29;20492;-80
2022/10/12 09:48:05;;;;;;;0.20;0.20;;;;;;;;;;4931519;29;20082;-80
2022/10/12 09:50:40;;;;;;;0.20;0.20;;;;;;;;;;4917388;29;20048;-81
2022/10/12 09:53:14;;;;;;;0.10;0.10;;;;;;;;;;4906282;29;20047;-80
2022/10/12 09:55:40;;;;;;;0.20;0.20;;;;;;;;;;4912492;29;20052;-80
2022/10/12 09:58:17;;;;;;;0.10;0.10;;;;;;;;;;4915086;29;20169;-80
2022/10/12 10:00:43;;;;;;;0.20;0.20;;;;;;;;;;4916064;29;20048;-81
2022/10/12 10:03:22;;;;;;;0.20;0.20;;;;;;;;;;4916005;29;20127;-81
2022/10/12 10:06:01;;;;;;;0.20;0.20;;;;;;;;;;4932645;29;20043;-81
2022/10/12 10:08:27;;;;;;;0.20;0.20;;;;;;;;;;4912780;29;20115;-80
2022/10/12 10:10:54;;;;;;;0.20;0.20;;;;;;;;;;4913449;29;20054;-81
2022/10/12 10:13:22;;;;;;;0.15;0.15;;;;;;;;;;4911156;29;20052;-81
2022/10/12 10:15:50;;;;;;;0.20;0.20;;;;;;;;;;4908592;29;20043;-79
2022/10/12 10:18:42;;;;;;;0.20;0.20;;;;;;;;;;4929335;29;20755;-81
2022/10/12 10:21:10;;;;;;;0.20;0.20;;;;;;;;;;4927002;29;20052;-81
2022/10/12 10:24:03;;;;;;;0.10;0.10;;;;;;;;;;4929041;29;20107;-80
2022/10/12 10:26:31;;;;;;;0.20;0.20;;;;;;;;;;4902104;29;20048;-80
2022/10/12 10:29:15;;;;;;;0.20;0.20;;;;;;;;;;4912354;29;20052;-80
2022/10/12 10:31:44;;;;;;;0.20;0.20;;;;;;;;;;4926850;29;20036;-80
2022/10/12 10:34:29;;;;;;;0.20;0.20;;;;;;;;;;4928484;29;20050;-81
2022/10/12 10:37:19;;;;;;;0.20;0.20;;;;;;;;;;4931348;29;20116;-80
2022/10/12 10:40:04;;;;;;;0.13;0.13;;;;;;;;;;4931575;29;20047;-82
2022/10/12 10:42:52;;;;;;;0.10;0.10;;;;;;;;;;4930430;29;20185;-82
2022/10/12 10:45:44;;;;;;;0.20;0.20;;;;;;;;;;4925797;29;20138;-81
2022/10/12 10:48:21;;;;;;;0.20;0.20;;;;;;;;;;4913311;29;20386;-81
2022/10/12 10:50:52;;;;;;;0.15;0.15;;;;;;;;;;4910754;29;20052;-81
2022/10/12 10:53:25;;;;;;;0.10;0.10;;;;;;;;;;4932149;29;20042;-80
2022/10/12 10:56:03;;;;;;;0.17;0.17;;;;;;;;;;4914193;29;20035;-81
2022/10/12 10:58:29;;;;;;;0.20;0.20;;;;;;;;;;4914758;29;20043;-80
2022/10/12 11:00:57;;;;;;;0.20;0.20;;;;;;;;;;4913986;29;20050;-80
2022/10/12 11:03:44;;;;;;;0.20;0.20;;;;;;;;;;4932150;29;20044;-79
2022/10/12 11:06:13;;;;;;;0.20;0.20;;;;;;;;;;4914718;29;20062;-80
2022/10/12 11:08:40;;;;;;;0.10;0.10;;;;;;;;;;4932226;29;20039;-82
2022/10/12 11:11:13;;;;;;;0.20;0.20;;;;;;;;;;4917079;29;20051;-81
2022/10/12 11:13:48;;;;;;;0.10;0.10;;;;;;;;;;4933091;29;20066;-82
2022/10/12 11:16:28;;;;;;;0.20;0.20;;;;;;;;;;4931418;29;20051;-81
2022/10/12 11:18:56;;;;;;;0.10;0.10;;;;;;;;;;4912505;29;20055;-81
2022/10/12 11:21:22;;;;;;;0.20;0.20;;;;;;;;;;4939634;29;20103;-80
2022/10/12 11:24:08;;;;;;;0.20;0.20;;;;;;;;;;4935691;29;20051;-80
2022/10/12 11:26:40;;;;;;;0.10;0.10;;;;;;;;;;4921421;29;20527;-83
2022/10/12 11:29:08;;;;;;;0.20;0.20;;;;;;;;;;4910794;29;20051;-81
2022/10/12 11:31:36;;;;;;;0.20;0.20;;;;;;;;;;4910569;29;20059;-82
2022/10/12 11:34:07;;;;;;;0.10;0.10;;;;;;;;;;4906974;29;20039;-82
2022/10/12 11:36:36;;;;;;;0.10;0.10;;;;;;;;;;4910150;29;20056;-82
2022/10/12 11:39:04;;;;;;;0.13;0.13;;;;;;;;;;4927977;29;20476;-81
2022/10/12 11:41:44;;;;;;;0.20;0.20;;;;;;;;;;4925149;29;20044;-81
2022/10/12 11:44:10;;;;;;;0.20;0.20;;;;;;;;;;4909767;29;20056;-81
2022/10/12 11:46:42;;;;;;;0.20;0.20;;;;;;;;;;4929784;29;20334;-81
2022/10/12 11:49:08;;;;;;;0.20;0.20;;;;;;;;;;4907908;29;20050;-81
2022/10/12 11:51:34;;;;;;;0.20;0.20;;;;;;;;;;4904263;29;20411;-82
2022/10/12 11:54:00;;;;;;;0.13;0.13;;;;;;;;;;4927497;29;20040;-82
2022/10/12 11:56:26;;;;;;;0.20;0.20;;;;;;;;;;4913419;29;20039;-82
2022/10/12 11:58:57;;;;;;;0.17;0.17;;;;;;;;;;4926990;29;20100;-81
2022/10/12 12:01:34;;;;;;;0.10;0.10;;;;;;;;;;4906231;29;20079;-81
2022/10/12 12:04:03;;;;;;;0.10;0.10;;;;;;;;;;4912604;29;20126;-81
2022/10/12 12:06:29;;;;;;;0.10;0.10;;;;;;;;;;4908348;29;20102;-81
2022/10/12 12:08:55;;;;;;;0.20;0.20;;;;;;;;;;4927514;29;20495;-81
2022/10/12 12:11:23;;;;;;;0.20;0.20;;;;;;;;;;4910317;29;20099;-81
2022/10/12 12:13:49;;;;;;;0.20;0.20;;;;;;;;;;4923991;29;20625;-81
2022/10/12 12:16:15;;;;;;;0.20;0.20;;;;;;;;;;4903560;29;20187;-82
2022/10/12 12:19:00;;;;;;;0.20;0.20;;;;;;;;;;4904872;29;20508;-80
2022/10/12 12:21:26;;;;;;;0.20;0.20;;;;;;;;;;4923841;29;20089;-81
2022/10/12 12:23:53;;;;;;;0.20;0.20;;;;;;;;;;4912565;29;20144;-81
2022/10/12 12:26:21;;;;;;;0.20;0.20;;;;;;;;;;4914784;29;20082;-80
2022/10/12 12:28:51;;;;;;;0.20;0.20;;;;;;;;;;4909327;29;20107;-78
2022/10/12 12:31:23;;;;;;;0.30;0.30;;;;;;;;;;4903851;29;20079;-80
2022/10/12 12:34:09;;;;;;;0.20;0.20;;;;;;;;;;4923715;29;20051;-80
2022/10/12 12:36:37;;;;;;;0.20;0.20;;;;;;;;;;4923689;29;20043;-79
2022/10/12 12:39:04;;;;;;;0.20;0.20;;;;;;;;;;4903713;29;20052;-80
2022/10/12 12:41:48;;;;;;;0.20;0.20;;;;;;;;;;4921992;29;20484;-81
2022/10/12 12:44:33;;;;;;;0.20;0.20;;;;;;;;;;4924360;29;20170;-79
2022/10/12 12:46:59;;;;;;;0.20;0.20;;;;;;;;;;4904482;29;20051;-79
2022/10/12 12:49:27;;;;;;;0.20;0.20;;;;;;;;;;4903599;29;20055;-80
2022/10/12 12:51:56;;;;;;;0.20;0.20;;;;;;;;;;4925469;29;20107;-81
2022/10/12 12:54:23;;;;;;;0.20;0.20;;;;;;;;;;4910436;29;20070;-80
2022/10/12 12:57:04;;;;;;;0.20;0.20;;;;;;;;;;4907503;29;20051;-81
2022/10/12 13:00:09;;;;;;;0.20;0.20;;;32.40;94.60;;;;;;4933508;29;20051;-82
2022/10/12 13:03:17;;;;;;;0.20;0.20;;;32.10;94.60;;;;;;4915651;29;20075;-81
2022/10/12 13:06:07;;;;;;;0.20;0.20;;;33.60;91.20;;;;;;4916549;29;20079;-80
2022/10/12 13:08:59;;;;;;;0.20;0.20;;;34.90;83.70;;;;;;4933405;29;20130;-80
2022/10/12 13:11:48;;;;;;;0.20;0.20;;;35.30;69.10;;;;;;4911106;29;20039;-80
2022/10/12 13:14:19;;;;;;;0.20;0.20;;;34.60;68.40;;;;;;4932512;29;20048;-79
2022/10/12 13:17:16;;;;;;;0.20;0.20;;;33.80;60.00;;;;;;4931053;29;20044;-80
2022/10/12 13:19:43;;;;;;;0.20;0.20;;;32.60;63.30;;;;;;4908661;29;20052;-80
2022/10/12 13:22:35;;;;;;;0.20;0.20;;;32.70;66.20;;;;;;4911149;29;20098;-79
2022/10/12 13:25:06;;;;;;;0.30;0.30;;;33.20;63.40;;;;;;4906815;29;20059;-80
2022/10/12 13:27:45;;;;;;;0.25;0.25;;;32.60;55.70;;;;;;4911628;29;20047;-80
2022/10/12 13:30:11;;;;;;;0.20;0.20;;;31.80;60.30;;;;;;4933090;29;20066;-80
2022/10/12 13:33:11;;;;;;;0.20;0.20;;;30.70;58.70;;;;;;4916906;29;20051;-80
2022/10/12 13:35:46;;;;;;;0.20;0.20;;;29.40;58.50;;;;;;4916731;29;20473;-80
2022/10/12 13:38:14;;;;;;;0.20;0.20;;;27.90;57.70;;;;;;4917071;29;20488;-80
2022/10/12 13:40:50;;;;;;;0.20;0.20;;;26.50;57.70;;;;;;4910265;29;20048;-78
2022/10/12 13:43:18;;;;;;;0.20;0.20;;;25.20;62.20;;;;;;4913549;29;20531;-80
2022/10/12 13:45:46;;;;;;;0.20;0.20;;;24.80;65.10;;;;;;4911877;29;20128;-80
2022/10/12 13:48:18;;;;;;;0.20;0.20;;;24.90;65.50;;;;;;4909972;29;20071;-79
2022/10/12 13:50:56;;;;;;;0.20;0.20;;;24.60;65.10;;;;;;4933035;29;20047;-80
2022/10/12 13:53:22;;;;;;;0.20;0.20;;;24.40;66.20;;;;;;4927288;29;20090;-80
2022/10/12 13:56:15;;;;;;;0.20;0.20;;;24.00;65.90;;;;;;4911219;29;20150;-79
2022/10/12 13:58:41;;;;;;;0.20;0.20;;;23.60;66.30;;;;;;4912182;29;20123;-80
2022/10/12 14:01:10;;;;;;;0.20;0.20;;;23.10;66.10;;;;;;4927850;29;20039;-81
2022/10/12 14:03:39;;;;;;;0.20;0.20;;;22.60;67.00;;;;;;4926454;29;20500;-80
2022/10/12 14:06:21;;;;;;;0.20;0.20;;;22.30;69.20;;;;;;4911207;29;20040;-81
2022/10/12 14:08:47;;;;;;;0.20;0.20;;;22.20;69.70;;;;;;4912409;29;20067;-80
2022/10/12 14:11:13;;;;;;;0.20;0.20;;;21.80;69.90;;;;;;4929012;29;20452;-79
2022/10/12 14:13:39;;;;;;;0.20;0.20;;;21.40;69.30;;;;;;4914858;29;20516;-78
2022/10/12 14:16:05;;;;;;;0.20;0.20;;;21.00;69.20;;;;;;4931580;29;20051;-79
2022/10/12 14:18:34;;;;;;;0.20;0.20;;;20.40;69.50;;;;;;4929300;29;20070;-80
2022/10/12 14:21:24;;;;;;;0.20;0.20;;;19.90;69.80;;;;;;4915399;29;20491;-80
2022/10/12 14:24:06;;;;;;;0.20;0.20;;;19.20;71.00;;;;;;4931167;29;20122;-79
2022/10/12 14:26:39;;;;;;;0.20;0.20;;;18.80;72.10;;;;;;4911172;29;20063;-80
2022/10/12 14:29:25;;;;;;;0.20;0.20;;;18.40;70.90;;;;;;4911777;29;20704;-79
2022/10/12 14:31:54;;;;;;;0.20;0.20;;;17.90;73.30;;;;;;4914924;29;20110;-80
2022/10/12 14:34:25;;;;;;;0.20;0.20;;;17.70;73.50;;;;;;4926917;29;20075;-79
2022/10/12 14:37:15;;;;;;;0.20;0.20;;;17.20;74.80;;;;;;4909724;29;20036;-78
2022/10/12 14:39:44;;;;;;;0.10;0.10;;;17.10;74.10;;;;;;4933731;29;20051;-77
2022/10/12 14:42:29;;;;;;;0.20;0.20;;;16.70;75.40;;;;;;4934208;29;20377;-79
2022/10/12 14:44:55;;;;;;;0.20;0.20;;;16.40;75.20;;;;;;4931231;29;20047;-80